METAR AND TAF INFORMATION
METAR FOR K22N
ADDS - METARS form results

(0352 UTC 17 May 2021)
Data provider http://aviationweather.gov/metar/data/
 
METAR text: K22N 170335Z AUTO 00000KT 10SM OVC100 09/08 A3029 RMK AO2
Conditions at: K22N (LEHIGHTON , PA, US) observed 0335 UTC 17 May 2021
Temperature: 9.0°C (48°F)
Dewpoint: 8.0°C (46°F) [RH = 93%]
Pressure (altimeter): 30.29 inches Hg (1025.8 mb)
Winds: calm
Visibility: 10 or more miles (16+ km)
Ceiling: 10000 feet AGL
Clouds: overcast cloud deck at 10000 feet AGL
Weather: automated observation with no human augmentation;
there may or may not be significant weather present at this time

METAR text: K22N 170315Z AUTO 00000KT 10SM BKN100 08/08 A3028 RMK AO2
Conditions at: K22N (LEHIGHTON , PA, US) observed 0315 UTC 17 May 2021
Temperature: 8.0°C (46°F)
Dewpoint: 8.0°C (46°F) [RH = 100%]
Pressure (altimeter): 30.28 inches Hg (1025.5 mb)
Winds: calm
Visibility: 10 or more miles (16+ km)
Ceiling: 10000 feet AGL
Clouds: broken clouds at 10000 feet AGL
Weather: automated observation with no human augmentation;
there may or may not be significant weather present at this time

METAR text: K22N 170255Z AUTO 00000KT 10SM CLR 09/08 A3028 RMK AO2
Conditions at: K22N (LEHIGHTON , PA, US) observed 0255 UTC 17 May 2021
Temperature: 9.0°C (48°F)
Dewpoint: 8.0°C (46°F) [RH = 93%]
Pressure (altimeter): 30.28 inches Hg (1025.5 mb)
Winds: calm
Visibility: 10 or more miles (16+ km)
Ceiling: at least 12,000 feet AGL
Clouds: sky clear below 12,000 feet AGL
Weather: automated observation with no human augmentation;
there may or may not be significant weather present at this time

 AIRPORT MAP

 RUNWAY INFORMATION
Runway 08 Runway length 3000 ft Runway width 60 ft
Runway elevation 534 ft Runway displaced threshold 0 ft Runway heading 69
Runway 26 Runway length 3000 ft Runway width 60 ft
Runway elevation 509 ft Runway displaced threshold 0 ft Runway heading 249

 AIRPORT FREQUENCIES
Type A/D Name ALLENTOWN Frequency 119.65 MHZ
Type UNIC Name CTAF/UNICO Frequency 123.05 MHZ

 AIRPORT NEAR NAVIGATION AIDS

-